createdAt,value
2019-02-06T00:00:11.786Z,4.6
2019-02-06T00:01:31.912Z,4.54
2019-02-06T00:02:41.892Z,4.62
2019-02-06T00:03:51.853Z,4.51
2019-02-06T00:05:01.576Z,4.47
2019-02-06T00:06:22.902Z,4.55
2019-02-06T00:07:33.514Z,4.55
2019-02-06T00:08:44.267Z,4.63
2019-02-06T00:09:55.126Z,4.51
2019-02-06T00:11:06.038Z,4.5
2019-02-06T00:12:16.877Z,4.58
2019-02-06T00:13:27.075Z,4.58
2019-02-06T00:14:37.312Z,4.6
2019-02-06T00:15:48.048Z,4.62
2019-02-06T00:16:58.431Z,4.65
2019-02-06T00:18:08.517Z,4.48
2019-02-06T00:19:18.127Z,4.6
2019-02-06T00:20:28.205Z,4.45
2019-02-06T00:21:38.165Z,4.6
2019-02-06T00:22:47.880Z,4.6
2019-02-06T00:23:57.837Z,4.54
2019-02-06T00:25:07.542Z,4.59
2019-02-06T00:26:17.280Z,4.59
2019-02-06T00:27:27.000Z,4.52
2019-02-06T00:28:36.957Z,4.63
2019-02-06T00:29:46.668Z,4.69
2019-02-06T00:30:55.913Z,4.65
2019-02-06T00:32:05.677Z,4.69
2019-02-06T00:33:15.411Z,4.7
2019-02-06T00:34:24.880Z,4.67
2019-02-06T00:35:34.336Z,4.7
2019-02-06T00:36:43.782Z,4.73
2019-02-06T00:37:53.246Z,4.73
2019-02-06T00:39:02.950Z,4.75
2019-02-06T00:40:12.670Z,4.75
2019-02-06T00:41:21.900Z,4.7
2019-02-06T00:42:31.869Z,4.78
2019-02-06T00:43:41.573Z,4.7
2019-02-06T00:44:51.275Z,4.72
2019-02-06T00:46:01.251Z,4.72
2019-02-06T00:47:10.706Z,4.69
2019-02-06T00:48:20.779Z,4.75
2019-02-06T00:49:30.510Z,4.7
2019-02-06T00:50:40.213Z,4.84
2019-02-06T00:51:50.183Z,4.73
2019-02-06T00:52:59.658Z,4.8
2019-02-06T00:54:09.458Z,4.77
2019-02-06T00:55:19.444Z,4.78
2019-02-06T00:56:29.183Z,4.91
2019-02-06T00:57:38.888Z,4.92
2019-02-06T00:58:48.617Z,4.82
2019-02-06T01:00:00.948Z,4.92
2019-02-06T01:01:10.688Z,4.94
2019-02-06T01:02:19.896Z,4.94
2019-02-06T01:03:29.763Z,4.96
2019-02-06T01:04:39.463Z,4.85
2019-02-06T01:05:49.189Z,4.82
2019-02-06T01:06:58.639Z,4.72
2019-02-06T01:08:08.352Z,4.69
2019-02-06T01:09:18.073Z,4.7
2019-02-06T01:10:27.791Z,4.84
2019-02-06T01:11:37.747Z,4.85
2019-02-06T01:12:47.714Z,4.82
2019-02-06T01:13:57.668Z,4.84
2019-02-06T01:15:07.113Z,4.75
2019-02-06T01:16:16.886Z,4.77
2019-02-06T01:17:28.182Z,4.86
2019-02-06T01:18:38.141Z,4.84
2019-02-06T01:19:47.603Z,4.91
2019-02-06T01:20:57.335Z,4.82
2019-02-06T01:22:07.306Z,4.77
2019-02-06T01:23:18.800Z,4.97
2019-02-06T01:24:28.500Z,4.91
2019-02-06T01:25:38.482Z,4.96
2019-02-06T01:26:48.207Z,4.89
2019-02-06T01:27:57.665Z,4.89
2019-02-06T01:29:07.131Z,4.92
2019-02-06T01:30:16.839Z,4.77
2019-02-06T01:31:26.540Z,4.85
2019-02-06T01:32:36.490Z,4.92
2019-02-06T01:33:46.436Z,4.92
2019-02-06T01:34:55.891Z,4.82
2019-02-06T01:36:05.597Z,4.8
2019-02-06T01:37:15.305Z,4.8
2019-02-06T01:38:25.008Z,4.77
2019-02-06T01:39:33.967Z,4.72
2019-02-06T01:40:43.409Z,4.7
2019-02-06T01:41:53.199Z,4.7
2019-02-06T01:43:03.420Z,4.67
2019-02-06T01:44:13.177Z,4.66
2019-02-06T01:45:22.995Z,4.69
2019-02-06T01:46:33.601Z,4.67
2019-02-06T01:47:43.601Z,4.62
2019-02-06T01:48:53.678Z,4.66
2019-02-06T01:50:04.376Z,4.59
2019-02-06T01:51:14.634Z,4.59
2019-02-06T01:52:25.374Z,4.65
2019-02-06T01:53:35.647Z,4.65
2019-02-06T01:54:45.796Z,4.62
2019-02-06T01:55:55.768Z,4.6
2019-02-06T01:57:05.645Z,4.58
2019-02-06T01:58:15.615Z,4.58
2019-02-06T01:59:25.064Z,4.58
2019-02-06T02:00:35.046Z,4.59
2019-02-06T02:01:44.997Z,4.51
2019-02-06T02:02:54.688Z,4.63
2019-02-06T02:04:04.411Z,4.6
2019-02-06T02:05:13.891Z,4.5
2019-02-06T02:06:23.348Z,4.54
2019-02-06T02:07:33.309Z,4.54
2019-02-06T02:08:42.751Z,4.48
2019-02-06T02:09:52.195Z,4.51
2019-02-06T02:11:01.394Z,4.47
2019-02-06T02:12:11.372Z,4.37
2019-02-06T02:13:21.070Z,4.42
2019-02-06T02:14:31.016Z,4.44
2019-02-06T02:15:40.462Z,4.4
2019-02-06T02:16:50.177Z,4.5
2019-02-06T02:18:00.139Z,4.44
2019-02-06T02:19:09.842Z,4.36
2019-02-06T02:20:19.802Z,4.36
2019-02-06T02:21:29.262Z,4.44
2019-02-06T02:22:39.325Z,4.24
2019-02-06T02:23:49.307Z,4.27
2019-02-06T02:24:59.028Z,4.3
2019-02-06T02:26:08.756Z,4.26
2019-02-06T02:27:18.222Z,4.26
2019-02-06T02:28:27.936Z,4.22
2019-02-06T02:29:37.505Z,4.24
2019-02-06T02:30:47.263Z,4.11
2019-02-06T02:31:56.982Z,4.2
2019-02-06T02:33:06.713Z,4.18
2019-02-06T02:34:16.426Z,4.12
2019-02-06T02:35:25.882Z,4.11
2019-02-06T02:36:35.840Z,4.06
2019-02-06T02:37:45.828Z,4.08
2019-02-06T02:38:55.544Z,4.04
2019-02-06T02:40:05.514Z,4.06
2019-02-06T02:41:15.513Z,4.04
2019-02-06T02:42:25.467Z,4
2019-02-06T02:43:35.459Z,4.02
2019-02-06T02:44:45.413Z,4.04
2019-02-06T02:45:55.124Z,4.06
2019-02-06T02:47:05.080Z,3.96
2019-02-06T02:48:15.189Z,3.93
2019-02-06T02:49:25.158Z,3.97
2019-02-06T02:50:35.173Z,3.87
2019-02-06T02:51:46.922Z,3.96
2019-02-06T02:52:56.911Z,3.97
2019-02-06T02:54:06.880Z,4.06
2019-02-06T02:55:16.639Z,3.96
2019-02-06T02:56:26.625Z,4.02
2019-02-06T02:57:36.605Z,3.96
2019-02-06T02:58:46.322Z,3.91
2019-02-06T02:59:56.048Z,3.88
2019-02-06T03:01:05.506Z,3.86
2019-02-06T03:02:15.220Z,3.87
2019-02-06T03:03:24.939Z,3.87
2019-02-06T03:04:34.399Z,3.97
2019-02-06T03:05:44.350Z,3.91
2019-02-06T03:06:54.079Z,3.84
2019-02-06T03:08:03.555Z,3.83
2019-02-06T03:09:13.723Z,3.83
2019-02-06T03:10:23.693Z,3.86
2019-02-06T03:11:33.413Z,3.84
2019-02-06T03:12:43.119Z,3.79
2019-02-06T03:13:52.580Z,3.79
2019-02-06T03:15:02.325Z,3.88
2019-02-06T03:16:12.276Z,3.88
2019-02-06T03:17:22.522Z,3.8
2019-02-06T03:18:32.851Z,3.86
2019-02-06T03:19:42.978Z,3.75
2019-02-06T03:20:53.233Z,3.75
2019-02-06T03:22:03.395Z,3.78
2019-02-06T03:23:13.842Z,3.76
2019-02-06T03:24:24.479Z,3.79
2019-02-06T03:25:34.729Z,3.76
2019-02-06T03:26:45.476Z,3.72
2019-02-06T03:27:55.952Z,3.79
2019-02-06T03:29:06.447Z,3.72
2019-02-06T03:30:16.449Z,3.76
2019-02-06T03:31:26.193Z,3.72
2019-02-06T03:32:36.206Z,3.79
2019-02-06T03:33:46.188Z,3.78
2019-02-06T03:34:56.188Z,3.75
2019-02-06T03:36:06.176Z,3.79
2019-02-06T03:37:15.887Z,3.79
2019-02-06T03:38:25.620Z,3.75
2019-02-06T03:39:35.597Z,3.79
2019-02-06T03:40:45.308Z,3.73
2019-02-06T03:41:55.263Z,3.69
2019-02-06T03:43:04.977Z,3.78
2019-02-06T03:44:14.190Z,3.83
2019-02-06T03:45:24.055Z,3.73
2019-02-06T03:46:34.043Z,3.79
2019-02-06T03:47:44.026Z,3.78
2019-02-06T03:48:53.991Z,3.7
2019-02-06T03:50:03.950Z,3.78
2019-02-06T03:51:13.657Z,3.8
2019-02-06T03:52:23.617Z,3.78
2019-02-06T03:53:33.320Z,3.76
2019-02-06T03:54:43.269Z,3.78
2019-02-06T03:55:52.723Z,3.72
2019-02-06T03:57:02.174Z,3.87
2019-02-06T03:58:11.945Z,3.75
2019-02-06T03:59:21.643Z,3.8
2019-02-06T04:00:31.356Z,3.83
2019-02-06T04:01:40.823Z,3.72
2019-02-06T04:02:50.884Z,3.8
2019-02-06T04:04:00.850Z,3.73
2019-02-06T04:05:10.851Z,3.73
2019-02-06T04:06:20.857Z,3.79
2019-02-06T04:07:30.824Z,3.83
2019-02-06T04:08:40.792Z,3.8
2019-02-06T04:09:50.755Z,3.79
2019-02-06T04:11:00.463Z,3.87
2019-02-06T04:12:10.182Z,3.79
2019-02-06T04:13:19.912Z,3.76
2019-02-06T04:14:29.622Z,3.78
2019-02-06T04:15:39.096Z,3.83
2019-02-06T04:16:48.553Z,3.84
2019-02-06T04:17:59.326Z,3.97
2019-02-06T04:19:09.037Z,3.87
2019-02-06T04:20:18.010Z,3.86
2019-02-06T04:21:27.716Z,3.76
2019-02-06T04:22:37.186Z,3.83
2019-02-06T04:23:47.180Z,3.72
2019-02-06T04:24:57.139Z,3.84
2019-02-06T04:26:07.153Z,3.76
2019-02-06T04:27:16.876Z,3.76
2019-02-06T04:28:26.884Z,3.72
2019-02-06T04:29:36.097Z,3.65
2019-02-06T04:30:45.830Z,3.76
2019-02-06T04:31:55.542Z,3.78
2019-02-06T04:33:05.533Z,3.84
2019-02-06T04:34:15.670Z,3.83
2019-02-06T04:35:25.408Z,3.83
2019-02-06T04:36:34.906Z,3.83
2019-02-06T04:37:44.614Z,3.76
2019-02-06T04:38:53.821Z,3.68
2019-02-06T04:40:03.791Z,3.68
2019-02-06T04:41:13.264Z,3.73
2019-02-06T04:42:23.235Z,3.66
2019-02-06T04:43:33.199Z,3.7
2019-02-06T04:44:42.922Z,3.65
2019-02-06T04:45:52.637Z,3.69
2019-02-06T04:47:02.124Z,3.76
2019-02-06T04:48:11.596Z,3.72
2019-02-06T04:49:21.563Z,3.62
2019-02-06T04:50:31.255Z,3.69
2019-02-06T04:51:40.972Z,3.7
2019-02-06T04:52:50.987Z,3.62
2019-02-06T04:54:00.943Z,3.7
2019-02-06T04:55:10.652Z,3.62
2019-02-06T04:56:20.620Z,3.6
2019-02-06T04:57:31.058Z,3.66
2019-02-06T04:58:41.377Z,3.75
2019-02-06T04:59:51.666Z,3.68
2019-02-06T05:01:02.215Z,3.66
2019-02-06T05:02:13.357Z,3.65
2019-02-06T05:03:25.769Z,3.73
2019-02-06T05:04:36.368Z,3.72
2019-02-06T05:05:46.696Z,3.69
2019-02-06T05:06:56.950Z,3.62
2019-02-06T05:08:07.119Z,3.68
2019-02-06T05:09:16.840Z,3.72
2019-02-06T05:10:26.271Z,3.7
2019-02-06T05:11:35.972Z,3.66
2019-02-06T05:12:45.414Z,3.58
2019-02-06T05:13:54.908Z,3.7
2019-02-06T05:15:04.555Z,3.69
2019-02-06T05:16:14.023Z,3.69
2019-02-06T05:17:23.996Z,3.61
2019-02-06T05:18:33.450Z,3.61
2019-02-06T05:19:43.462Z,3.69
2019-02-06T05:20:53.459Z,3.7
2019-02-06T05:22:03.234Z,3.66
2019-02-06T05:23:13.384Z,3.69
2019-02-06T05:24:22.847Z,3.68
2019-02-06T05:25:32.559Z,3.7
2019-02-06T05:26:42.025Z,3.75
2019-02-06T05:27:51.473Z,3.7
2019-02-06T05:29:01.191Z,3.61
2019-02-06T05:30:10.928Z,3.75
2019-02-06T05:31:20.133Z,3.66
2019-02-06T05:32:30.258Z,3.7
2019-02-06T05:33:40.247Z,3.69
2019-02-06T05:34:49.965Z,3.66
2019-02-06T05:35:59.432Z,3.72
2019-02-06T05:37:09.425Z,3.84
2019-02-06T05:38:18.904Z,3.8
2019-02-06T05:39:28.379Z,3.78
2019-02-06T05:40:38.112Z,3.78
2019-02-06T05:41:47.841Z,3.8
2019-02-06T05:42:57.944Z,3.75
2019-02-06T05:44:07.166Z,3.79
2019-02-06T05:45:16.966Z,3.79
2019-02-06T05:46:26.707Z,3.79
2019-02-06T05:47:36.421Z,3.8
2019-02-06T05:48:49.249Z,3.8
2019-02-06T05:49:59.220Z,3.84
2019-02-06T05:51:09.208Z,3.73
2019-02-06T05:52:19.268Z,3.79
2019-02-06T05:53:28.735Z,3.75
2019-02-06T05:54:38.462Z,3.84
2019-02-06T05:55:48.431Z,3.73
2019-02-06T05:56:58.438Z,3.79
2019-02-06T05:58:08.311Z,3.79
2019-02-06T05:59:18.258Z,3.86
2019-02-06T06:00:27.953Z,3.84
2019-02-06T06:01:37.673Z,3.79
2019-02-06T06:02:47.632Z,3.78
2019-02-06T06:03:57.613Z,3.8
2019-02-06T06:05:07.562Z,3.83
2019-02-06T06:06:17.302Z,3.8
2019-02-06T06:07:27.316Z,3.88
2019-02-06T06:08:49.675Z,3.86
2019-02-06T06:09:59.148Z,3.94
2019-02-06T06:11:09.121Z,3.88
2019-02-06T06:12:19.090Z,3.91
2019-02-06T06:13:28.808Z,3.9
2019-02-06T06:14:38.772Z,3.87
2019-02-06T06:15:48.761Z,3.93
2019-02-06T06:16:58.235Z,3.91
2019-02-06T06:18:08.038Z,4.05
2019-02-06T06:19:17.797Z,4.05
2019-02-06T06:20:27.513Z,4.06
2019-02-06T06:21:37.349Z,4.11
2019-02-06T06:22:47.431Z,4.04
2019-02-06T06:23:57.397Z,3.98
2019-02-06T06:25:07.361Z,4.09
2019-02-06T06:26:17.341Z,3.98
2019-02-06T06:27:26.565Z,3.97
2019-02-06T06:28:36.569Z,3.94
2019-02-06T06:29:46.274Z,4.02
2019-02-06T06:30:56.012Z,4.06
2019-02-06T06:32:05.978Z,4.04
2019-02-06T06:33:15.856Z,3.94
2019-02-06T06:34:26.193Z,3.97
2019-02-06T06:35:36.327Z,3.94
2019-02-06T06:36:46.679Z,3.91
2019-02-06T06:38:07.497Z,3.94
2019-02-06T06:39:17.472Z,3.96
2019-02-06T06:40:27.474Z,3.94
2019-02-06T06:41:37.256Z,3.97
2019-02-06T06:42:47.236Z,3.94
2019-02-06T06:43:56.727Z,4
2019-02-06T06:45:06.686Z,3.91
2019-02-06T06:46:16.381Z,3.97
2019-02-06T06:47:25.839Z,4.06
2019-02-06T06:48:35.821Z,4
2019-02-06T06:49:45.791Z,3.96
2019-02-06T06:50:55.756Z,4
2019-02-06T06:52:08.487Z,4.06
2019-02-06T06:53:18.515Z,4.06
2019-02-06T06:54:27.975Z,3.98
2019-02-06T06:55:40.073Z,4.02
2019-02-06T06:56:49.767Z,4.04
2019-02-06T06:57:59.738Z,4.04
2019-02-06T06:59:09.184Z,4.04
2019-02-06T07:00:19.142Z,4.06
2019-02-06T07:01:28.585Z,4.05
2019-02-06T07:02:38.290Z,4.08
2019-02-06T07:03:48.235Z,4.05
2019-02-06T07:04:57.462Z,4.18
2019-02-06T07:06:07.179Z,4.18
2019-02-06T07:07:17.174Z,4.16
2019-02-06T07:08:26.867Z,4.23
2019-02-06T07:09:36.361Z,4.18
2019-02-06T07:10:46.315Z,4.12
2019-02-06T07:11:56.022Z,4.18
2019-02-06T07:13:05.496Z,4.12
2019-02-06T07:14:15.211Z,4.22
2019-02-06T07:15:25.172Z,4.22
2019-02-06T07:16:34.624Z,4.2
2019-02-06T07:17:44.318Z,4.22
2019-02-06T07:18:54.024Z,4.23
2019-02-06T07:20:03.994Z,4.09
2019-02-06T07:21:13.432Z,4.23
2019-02-06T07:22:22.887Z,4.32
2019-02-06T07:23:32.614Z,4.3
2019-02-06T07:24:42.573Z,4.29
2019-02-06T07:25:52.145Z,4.27
2019-02-06T07:27:02.118Z,4.32
2019-02-06T07:28:12.076Z,4.33
2019-02-06T07:29:21.799Z,4.32
2019-02-06T07:30:31.816Z,4.29
2019-02-06T07:31:41.533Z,4.32
2019-02-06T07:32:51.243Z,4.42
2019-02-06T07:34:00.964Z,4.45
2019-02-06T07:35:10.928Z,4.3
2019-02-06T07:36:20.672Z,4.4
2019-02-06T07:37:30.634Z,4.45
2019-02-06T07:38:40.328Z,4.4
2019-02-06T07:39:50.284Z,4.45
2019-02-06T07:41:00.246Z,4.41
2019-02-06T07:42:09.952Z,4.51
2019-02-06T07:43:20.019Z,4.51
2019-02-06T07:44:29.739Z,4.52
2019-02-06T07:45:39.211Z,4.54
2019-02-06T07:46:49.043Z,4.63
2019-02-06T07:47:59.013Z,4.62
2019-02-06T07:49:08.720Z,4.66
2019-02-06T07:50:18.438Z,4.58
2019-02-06T07:51:27.912Z,4.62
2019-02-06T07:52:37.630Z,4.62
2019-02-06T07:53:47.086Z,4.62
2019-02-06T07:54:56.651Z,4.55
2019-02-06T07:56:06.421Z,4.67
2019-02-06T07:57:16.186Z,4.69
2019-02-06T07:58:26.061Z,4.7
2019-02-06T07:59:36.102Z,4.72
2019-02-06T08:00:46.200Z,4.73
2019-02-06T08:01:56.647Z,4.72
2019-02-06T08:03:06.819Z,4.67
2019-02-06T08:04:17.301Z,4.7
2019-02-06T08:05:27.622Z,4.73
2019-02-06T08:06:38.353Z,4.7
2019-02-06T08:07:48.962Z,4.73
2019-02-06T08:08:59.173Z,4.67
2019-02-06T08:10:09.473Z,4.7
2019-02-06T08:11:19.661Z,4.75
2019-02-06T08:12:29.301Z,4.73
2019-02-06T08:13:39.270Z,4.7
2019-02-06T08:14:48.995Z,4.75
2019-02-06T08:15:58.434Z,4.73
2019-02-06T08:17:07.960Z,4.82
2019-02-06T08:18:17.673Z,4.8
2019-02-06T08:19:27.383Z,4.77
2019-02-06T08:20:37.094Z,4.88
2019-02-06T08:21:49.651Z,4.86
2019-02-06T08:22:59.598Z,4.97
2019-02-06T08:24:09.583Z,4.94
2019-02-06T08:25:19.060Z,4.94
2019-02-06T08:26:28.310Z,4.96
2019-02-06T08:27:38.269Z,4.96
2019-02-06T08:28:47.973Z,4.96
2019-02-06T08:29:57.678Z,5.02
2019-02-06T08:31:07.389Z,4.97
2019-02-06T08:32:17.209Z,5.02
2019-02-06T08:33:27.174Z,4.96
2019-02-06T08:34:37.138Z,5
2019-02-06T08:35:46.600Z,5.09
2019-02-06T08:36:56.656Z,5.04
2019-02-06T08:38:06.377Z,4.92
2019-02-06T08:39:15.843Z,4.97
2019-02-06T08:40:25.555Z,5.1
2019-02-06T08:41:35.518Z,5.17
2019-02-06T08:42:45.225Z,5.07
2019-02-06T08:43:54.694Z,5.15
2019-02-06T08:45:07.183Z,5.15
2019-02-06T08:46:16.666Z,5.13
2019-02-06T08:47:26.661Z,5.09
2019-02-06T08:48:36.654Z,5.18
2019-02-06T08:49:46.359Z,5.1
2019-02-06T08:50:55.565Z,5.15
2019-02-06T08:52:05.518Z,5.2
2019-02-06T08:53:14.977Z,5.21
2019-02-06T08:54:25.306Z,5.28
2019-02-06T08:55:35.292Z,5.22
2019-02-06T08:56:45.266Z,5.2
2019-02-06T08:57:54.990Z,5.24
2019-02-06T08:59:04.438Z,5.38
2019-02-06T09:00:13.670Z,5.38
2019-02-06T09:01:23.636Z,5.3
2019-02-06T09:02:32.865Z,5.4
2019-02-06T09:03:42.865Z,5.35
2019-02-06T09:05:00.213Z,5.45
2019-02-06T09:06:12.719Z,5.43
2019-02-06T09:07:22.432Z,5.48
2019-02-06T09:08:31.928Z,5.45
2019-02-06T09:09:43.497Z,5.53
2019-02-06T09:10:53.721Z,5.61
2019-02-06T09:12:03.427Z,5.63
2019-02-06T09:13:13.641Z,5.63
2019-02-06T09:14:23.629Z,5.57
2019-02-06T09:15:33.846Z,5.64
2019-02-06T09:16:43.991Z,5.65
2019-02-06T09:17:54.493Z,5.67
2019-02-06T09:19:04.957Z,5.72
2019-02-06T09:20:15.923Z,5.75
2019-02-06T09:21:26.165Z,5.61
2019-02-06T09:22:36.100Z,5.75
2019-02-06T09:23:46.281Z,5.72
2019-02-06T09:24:56.639Z,5.72
2019-02-06T09:26:06.636Z,5.75
2019-02-06T09:27:16.634Z,5.86
2019-02-06T09:28:26.585Z,5.78
2019-02-06T09:29:36.045Z,5.89
2019-02-06T09:30:45.753Z,5.81
2019-02-06T09:31:55.754Z,5.89
2019-02-06T09:33:07.257Z,5.89
2019-02-06T09:34:16.731Z,5.94
2019-02-06T09:35:26.260Z,5.9
2019-02-06T09:36:35.981Z,5.91
2019-02-06T09:37:45.705Z,5.9
2019-02-06T09:38:55.171Z,5.94
2019-02-06T09:40:16.218Z,5.99
2019-02-06T09:41:25.981Z,6.03
2019-02-06T09:42:35.964Z,6.04
2019-02-06T09:43:45.674Z,6.03
2019-02-06T09:44:55.165Z,6.12
2019-02-06T09:46:04.872Z,6.04
2019-02-06T09:47:14.857Z,6.03
2019-02-06T09:48:25.321Z,6.22
2019-02-06T09:49:34.790Z,6.19
2019-02-06T09:50:46.786Z,6.3
2019-02-06T09:51:56.509Z,6.31
2019-02-06T09:53:06.209Z,6.28
2019-02-06T09:54:15.912Z,6.31
2019-02-06T09:55:25.610Z,6.38
2019-02-06T09:56:35.083Z,6.36
2019-02-06T09:57:44.788Z,6.41
2019-02-06T09:58:54.848Z,6.41
2019-02-06T10:00:04.070Z,6.4
2019-02-06T10:01:13.545Z,6.44
2019-02-06T10:02:26.710Z,6.41
2019-02-06T10:03:35.921Z,6.44
2019-02-06T10:04:45.636Z,6.51
2019-02-06T10:05:55.585Z,6.46
2019-02-06T10:07:04.544Z,6.49
2019-02-06T10:08:13.502Z,6.55
2019-02-06T10:09:27.728Z,6.61
2019-02-06T10:10:37.520Z,6.62
2019-02-06T10:11:47.293Z,6.62
2019-02-06T10:12:57.261Z,6.62
2019-02-06T10:14:07.248Z,6.76
2019-02-06T10:15:16.713Z,6.58
2019-02-06T10:16:26.651Z,6.7
2019-02-06T10:17:38.688Z,6.71
2019-02-06T10:18:48.405Z,6.71
2019-02-06T10:19:57.861Z,6.64
2019-02-06T10:21:07.682Z,6.62
2019-02-06T10:22:17.633Z,6.69
2019-02-06T10:23:27.706Z,6.67
2019-02-06T10:24:37.676Z,6.69
2019-02-06T10:25:47.950Z,6.71
2019-02-06T10:27:01.792Z,6.71
2019-02-06T10:28:12.766Z,6.71
2019-02-06T10:29:23.604Z,6.62
2019-02-06T10:30:34.320Z,6.71
2019-02-06T10:31:44.658Z,6.71
2019-02-06T10:32:54.811Z,6.66
2019-02-06T10:34:04.677Z,6.71
2019-02-06T10:35:14.980Z,6.74
2019-02-06T10:36:24.937Z,6.73
2019-02-06T10:37:34.903Z,6.7
2019-02-06T10:38:44.606Z,6.67
2019-02-06T10:39:54.313Z,6.76
2019-02-06T10:41:09.174Z,6.8
2019-02-06T10:42:18.647Z,6.85
2019-02-06T10:43:38.125Z,6.87
2019-02-06T10:44:48.086Z,6.85
2019-02-06T10:45:58.181Z,6.81
2019-02-06T10:47:07.919Z,6.79
2019-02-06T10:48:17.623Z,6.88
2019-02-06T10:49:27.672Z,6.89
2019-02-06T10:50:37.130Z,6.84
2019-02-06T10:51:46.826Z,6.88
2019-02-06T10:52:56.825Z,6.92
2019-02-06T10:54:06.567Z,6.94
2019-02-06T10:55:16.520Z,6.88
2019-02-06T10:56:26.260Z,6.89
2019-02-06T10:57:35.989Z,6.94
2019-02-06T10:58:45.437Z,6.89
2019-02-06T10:59:55.453Z,6.8
2019-02-06T11:01:05.524Z,6.74
2019-02-06T11:02:15.494Z,6.77
2019-02-06T11:03:25.467Z,6.92
2019-02-06T11:04:35.285Z,6.89
2019-02-06T11:05:45.260Z,6.92
2019-02-06T11:06:54.982Z,6.89
2019-02-06T11:08:04.435Z,6.84
2019-02-06T11:09:14.138Z,6.87
2019-02-06T11:10:23.858Z,6.79
2019-02-06T11:11:33.826Z,6.74
2019-02-06T11:12:43.530Z,6.7
2019-02-06T11:13:54.741Z,6.69
2019-02-06T11:15:04.224Z,6.69
2019-02-06T11:16:13.924Z,6.67
2019-02-06T11:17:23.381Z,6.74
2019-02-06T11:18:33.090Z,6.71
2019-02-06T11:19:45.483Z,6.61
2019-02-06T11:20:54.946Z,6.67
2019-02-06T11:22:04.406Z,6.56
2019-02-06T11:23:14.346Z,6.56
2019-02-06T11:24:26.699Z,6.61
2019-02-06T11:25:36.630Z,6.61
2019-02-06T11:26:46.132Z,6.56
2019-02-06T11:27:56.175Z,6.46
2019-02-06T11:29:06.226Z,6.51
2019-02-06T11:30:16.200Z,6.44
2019-02-06T11:31:26.613Z,6.49
2019-02-06T11:32:36.583Z,6.37
2019-02-06T11:33:47.145Z,6.4
2019-02-06T11:34:57.406Z,6.31
2019-02-06T11:36:10.238Z,6.36
2019-02-06T11:37:31.153Z,6.4
2019-02-06T11:38:41.110Z,6.33
2019-02-06T11:40:02.442Z,6.4
2019-02-06T11:41:11.913Z,6.43
2019-02-06T11:42:21.627Z,6.41
2019-02-06T11:43:34.628Z,6.41
2019-02-06T11:44:44.647Z,6.34
2019-02-06T11:45:54.365Z,6.38
2019-02-06T11:47:03.825Z,6.41
2019-02-06T11:48:13.778Z,6.46
2019-02-06T11:49:23.729Z,6.33
2019-02-06T11:50:32.936Z,6.36
2019-02-06T11:51:42.385Z,6.38
2019-02-06T11:52:52.369Z,6.38
2019-02-06T11:54:02.337Z,6.34
2019-02-06T11:55:13.564Z,6.38
2019-02-06T11:56:23.281Z,6.4
2019-02-06T11:57:33.004Z,6.38
2019-02-06T11:58:42.702Z,6.41
2019-02-06T11:59:55.377Z,6.36
2019-02-06T12:01:05.566Z,6.33
2019-02-06T12:02:15.523Z,6.43
2019-02-06T12:03:26.893Z,6.4
2019-02-06T12:04:36.612Z,6.36
2019-02-06T12:05:46.561Z,6.44
2019-02-06T12:06:56.496Z,6.38
2019-02-06T12:08:06.253Z,6.48
2019-02-06T12:09:18.006Z,6.48
2019-02-06T12:10:27.962Z,6.51
2019-02-06T12:11:37.919Z,6.48
2019-02-06T12:12:47.619Z,6.51
2019-02-06T12:13:57.749Z,6.52
2019-02-06T12:15:08.119Z,6.51
2019-02-06T12:16:18.183Z,6.51
2019-02-06T12:17:28.879Z,6.49
2019-02-06T12:18:39.341Z,6.58
2019-02-06T12:19:50.494Z,6.55
2019-02-06T12:21:01.007Z,6.69
2019-02-06T12:22:11.619Z,6.49
2019-02-06T12:23:34.179Z,6.59
2019-02-06T12:24:43.909Z,6.49
2019-02-06T12:25:53.620Z,6.51
2019-02-06T12:27:03.587Z,6.34
2019-02-06T12:28:12.810Z,6.37
2019-02-06T12:29:22.568Z,6.31
2019-02-06T12:30:32.411Z,6.37
2019-02-06T12:31:42.148Z,6.31
2019-02-06T12:32:57.126Z,6.31
2019-02-06T12:34:07.089Z,6.3
2019-02-06T12:35:16.547Z,6.33
2019-02-06T12:36:26.254Z,6.38
2019-02-06T12:37:36.029Z,6.3
2019-02-06T12:38:57.852Z,6.33
2019-02-06T12:40:07.322Z,6.41
2019-02-06T12:41:28.343Z,6.22
2019-02-06T12:42:37.545Z,6.3
2019-02-06T12:43:47.500Z,6.15
2019-02-06T12:44:58.993Z,6.14
2019-02-06T12:46:08.899Z,6.21
2019-02-06T12:47:18.622Z,6.22
2019-02-06T12:48:28.573Z,6.14
2019-02-06T12:49:38.528Z,6.18
2019-02-06T12:50:48.484Z,6.25
2019-02-06T12:51:57.934Z,6.22
2019-02-06T12:53:07.663Z,6.25
2019-02-06T12:54:17.127Z,6.17
2019-02-06T12:55:26.584Z,6.28
2019-02-06T12:56:36.547Z,6.15
2019-02-06T12:57:45.759Z,6.21
2019-02-06T12:58:55.492Z,6.15
2019-02-06T13:00:05.468Z,6.19
2019-02-06T13:01:15.196Z,6.19
2019-02-06T13:02:24.939Z,6.18
2019-02-06T13:03:34.410Z,6.3
2019-02-06T13:04:44.125Z,6.15
2019-02-06T13:05:54.097Z,6.15
2019-02-06T13:07:05.081Z,6.21
2019-02-06T13:08:17.188Z,6.28
2019-02-06T13:09:27.194Z,6.22
2019-02-06T13:10:39.220Z,6.3
2019-02-06T13:11:49.189Z,6.19
2019-02-06T13:12:59.265Z,6.19
2019-02-06T13:14:09.086Z,6.18
2019-02-06T13:15:19.423Z,6.31
2019-02-06T13:16:29.799Z,6.33
2019-02-06T13:17:39.738Z,6.3
2019-02-06T13:18:51.267Z,6.33
2019-02-06T13:20:01.961Z,6.3
2019-02-06T13:21:12.553Z,6.28
2019-02-06T13:22:22.940Z,6.22
2019-02-06T13:23:32.473Z,6.28
2019-02-06T13:24:42.213Z,6.31
2019-02-06T13:25:52.175Z,6.38
2019-02-06T13:27:02.020Z,6.3
2019-02-06T13:28:11.985Z,6.33
2019-02-06T13:29:21.841Z,6.36
2019-02-06T13:30:31.322Z,6.3
2019-02-06T13:31:41.052Z,6.3
2019-02-06T13:32:50.372Z,6.33
2019-02-06T13:33:59.861Z,6.27
2019-02-06T13:35:09.589Z,6.33
2019-02-06T13:36:19.056Z,6.21
2019-02-06T13:37:28.537Z,6.27
2019-02-06T13:38:37.741Z,6.27
2019-02-06T13:39:47.450Z,6.31
2019-02-06T13:40:56.666Z,6.4
2019-02-06T13:42:10.201Z,6.38
2019-02-06T13:43:19.667Z,6.4
2019-02-06T13:44:29.384Z,6.38
2019-02-06T13:45:39.098Z,6.36
2019-02-06T13:46:57.994Z,6.34
2019-02-06T13:48:07.559Z,6.38
2019-02-06T13:49:17.266Z,6.36
2019-02-06T13:50:27.047Z,6.37
2019-02-06T13:51:36.502Z,6.46
2019-02-06T13:52:46.199Z,6.38
2019-02-06T13:53:55.653Z,6.38
2019-02-06T13:55:05.358Z,6.33
2019-02-06T13:56:15.318Z,6.37
2019-02-06T13:57:36.051Z,6.38
2019-02-06T13:58:45.517Z,6.44
2019-02-06T13:59:55.498Z,6.44
2019-02-06T14:01:05.359Z,6.31
2019-02-06T14:02:15.314Z,6.3
2019-02-06T14:03:25.274Z,6.28
2019-02-06T14:04:36.709Z,6.17
2019-02-06T14:05:49.337Z,6.25
2019-02-06T14:06:59.072Z,6.28
2019-02-06T14:08:08.290Z,6.18
2019-02-06T14:09:29.397Z,6.19
2019-02-06T14:10:39.815Z,6.14
2019-02-06T14:11:49.627Z,6.28
2019-02-06T14:12:59.866Z,6.28
2019-02-06T14:14:09.578Z,6.25
2019-02-06T14:15:19.587Z,6.18
2019-02-06T14:16:32.014Z,6.22
2019-02-06T14:17:41.485Z,6.25
2019-02-06T14:18:50.934Z,6.21
2019-02-06T14:20:03.480Z,6.3
2019-02-06T14:21:13.435Z,6.22
2019-02-06T14:22:23.466Z,6.31
2019-02-06T14:23:32.678Z,6.3
2019-02-06T14:24:42.650Z,6.3
2019-02-06T14:25:52.110Z,6.27
2019-02-06T14:27:01.967Z,6.18
2019-02-06T14:28:11.416Z,6.25
2019-02-06T14:29:20.608Z,6.28
2019-02-06T14:30:29.818Z,6.21
2019-02-06T14:31:39.772Z,6.27
2019-02-06T14:32:49.227Z,6.22
2019-02-06T14:33:58.938Z,6.28
2019-02-06T14:35:08.645Z,6.31
2019-02-06T14:36:18.120Z,6.31
2019-02-06T14:37:30.182Z,6.3
2019-02-06T14:38:40.162Z,6.31
2019-02-06T14:39:49.631Z,6.31
2019-02-06T14:41:10.591Z,6.25
2019-02-06T14:42:20.308Z,6.21
2019-02-06T14:43:30.259Z,6.25
2019-02-06T14:44:40.232Z,6.15
2019-02-06T14:45:49.685Z,6.17
2019-02-06T14:46:59.409Z,6.19
2019-02-06T14:48:09.384Z,6.22
2019-02-06T14:49:18.865Z,6.25
2019-02-06T14:50:28.574Z,6.21
2019-02-06T14:51:38.544Z,6.17
2019-02-06T14:52:48.263Z,6.18
2019-02-06T14:53:58.225Z,6.21
2019-02-06T14:55:07.945Z,6.18
2019-02-06T14:56:18.807Z,6.22
2019-02-06T14:57:28.551Z,6.21
2019-02-06T14:58:38.094Z,6.21
2019-02-06T14:59:47.631Z,6.27
2019-02-06T15:01:06.440Z,6.06
2019-02-06T15:02:16.420Z,6.19
2019-02-06T15:03:26.325Z,6.08
2019-02-06T15:04:36.033Z,6.08
2019-02-06T15:05:45.745Z,6.09
2019-02-06T15:06:55.562Z,6.08
2019-02-06T15:08:06.207Z,6.11
2019-02-06T15:09:16.034Z,6.15
2019-02-06T15:10:27.674Z,6.06
2019-02-06T15:11:37.397Z,6.15
2019-02-06T15:12:47.107Z,6.01
2019-02-06T15:13:56.813Z,6.12
2019-02-06T15:15:06.765Z,6.15
2019-02-06T15:16:16.486Z,6.17
2019-02-06T15:17:25.963Z,6.08
2019-02-06T15:18:36.199Z,6.14
2019-02-06T15:19:45.893Z,6.08
2019-02-06T15:20:55.856Z,6.11
2019-02-06T15:22:05.330Z,6.06
2019-02-06T15:23:15.305Z,6.12
2019-02-06T15:24:25.255Z,6.11
2019-02-06T15:25:36.006Z,6.03
2019-02-06T15:26:45.709Z,6.01
2019-02-06T15:27:55.188Z,6.08
2019-02-06T15:29:04.934Z,6.09
2019-02-06T15:30:14.642Z,6.09
2019-02-06T15:31:24.593Z,6.01
2019-02-06T15:32:34.588Z,6.04
2019-02-06T15:33:44.285Z,5.96
2019-02-06T15:34:53.503Z,6.03
2019-02-06T15:36:03.626Z,6.01
2019-02-06T15:37:13.635Z,5.99
2019-02-06T15:38:23.599Z,5.97